createdAt,value
2022-12-26T00:00:15.309Z,171.40
2022-12-26T00:01:15.240Z,167.30
2022-12-26T00:02:15.248Z,166.40
2022-12-26T00:03:15.474Z,172.00
2022-12-26T00:04:51.347Z,166.30
2022-12-26T00:05:15.226Z,160.90
2022-12-26T00:06:15.198Z,156.70
2022-12-26T00:07:15.206Z,165.00
2022-12-26T00:08:15.168Z,163.20
2022-12-26T00:09:15.160Z,163.70
2022-12-26T00:10:15.198Z,162.30
2022-12-26T00:11:15.154Z,163.90
2022-12-26T00:12:15.127Z,160.30
2022-12-26T00:13:38.169Z,161.30
2022-12-26T00:14:15.110Z,157.70
2022-12-26T00:15:15.096Z,155.30
2022-12-26T00:16:15.157Z,154.80
2022-12-26T00:17:15.084Z,157.10
2022-12-26T00:18:15.068Z,154.90
2022-12-26T00:19:15.056Z,158.20
2022-12-26T00:20:15.040Z,157.90
2022-12-26T00:21:15.068Z,151.90
2022-12-26T00:22:15.024Z,156.40
2022-12-26T00:23:15.013Z,158.40
2022-12-26T00:24:15.018Z,157.10
2022-12-26T00:25:14.996Z,158.50
2022-12-26T00:26:15.000Z,162.80
2022-12-26T00:27:14.978Z,159.30
2022-12-26T00:28:14.958Z,161.60
2022-12-26T00:29:14.971Z,155.80
2022-12-26T00:30:14.968Z,160.10
2022-12-26T00:31:15.035Z,158.70
2022-12-26T00:32:14.931Z,159.10
2022-12-26T00:33:14.931Z,160.70
2022-12-26T00:34:14.909Z,155.70
2022-12-26T00:35:14.891Z,152.80
2022-12-26T00:36:14.913Z,159.20
2022-12-26T00:37:14.873Z,153.60
2022-12-26T00:38:14.878Z,152.70
2022-12-26T00:39:14.857Z,152.90
2022-12-26T00:40:14.832Z,155.10
2022-12-26T00:41:14.854Z,150.90
2022-12-26T00:42:14.823Z,157.90
2022-12-26T00:43:14.818Z,156.70
2022-12-26T00:44:14.787Z,160.60
2022-12-26T00:45:14.792Z,162.90
2022-12-26T00:46:14.877Z,160.10
2022-12-26T00:47:14.814Z,155.10
2022-12-26T00:48:14.748Z,155.50
2022-12-26T00:49:14.745Z,159.20
2022-12-26T00:50:15.802Z,152.00
2022-12-26T00:51:14.750Z,156.10
2022-12-26T00:52:14.707Z,159.10
2022-12-26T00:53:14.705Z,158.50
2022-12-26T00:54:14.703Z,159.10
2022-12-26T00:55:14.686Z,156.00
2022-12-26T00:56:14.704Z,159.30
2022-12-26T00:57:14.671Z,156.40
2022-12-26T00:58:14.643Z,149.20
2022-12-26T00:59:14.641Z,147.50
2022-12-26T01:00:14.629Z,145.80
2022-12-26T01:01:14.789Z,147.50
2022-12-26T01:02:14.723Z,146.50
2022-12-26T01:03:14.766Z,147.80
2022-12-26T01:04:14.600Z,148.40
2022-12-26T01:05:14.583Z,143.70
2022-12-26T01:06:14.591Z,150.40
2022-12-26T01:07:14.582Z,149.10
2022-12-26T01:08:19.846Z,151.20
2022-12-26T01:09:14.561Z,156.40
2022-12-26T01:10:14.523Z,151.90
2022-12-26T01:11:14.545Z,147.10
2022-12-26T01:12:14.516Z,145.50
2022-12-26T01:13:14.503Z,141.90
2022-12-26T01:14:14.504Z,143.80
2022-12-26T01:15:14.482Z,144.00
2022-12-26T01:16:14.557Z,149.30
2022-12-26T01:17:14.499Z,146.00
2022-12-26T01:18:14.444Z,147.40
2022-12-26T01:19:20.932Z,147.30
2022-12-26T01:20:20.909Z,148.20
2022-12-26T01:21:22.123Z,145.80
2022-12-26T01:22:14.404Z,141.60
2022-12-26T01:23:14.397Z,143.70
2022-12-26T01:24:14.378Z,142.10
2022-12-26T01:25:14.374Z,147.10
2022-12-26T01:26:18.456Z,148.90
2022-12-26T01:27:14.369Z,141.90
2022-12-26T01:28:14.337Z,138.70
2022-12-26T01:29:14.344Z,141.30
2022-12-26T01:30:14.323Z,142.30
2022-12-26T01:31:14.361Z,146.40
2022-12-26T01:32:14.381Z,143.60
2022-12-26T01:33:14.287Z,140.20
2022-12-26T01:34:14.276Z,141.40
2022-12-26T01:35:14.264Z,136.00
2022-12-26T01:36:14.282Z,139.60
2022-12-26T01:37:14.248Z,137.50
2022-12-26T01:38:14.239Z,140.70
2022-12-26T01:39:14.222Z,141.50
2022-12-26T01:40:14.223Z,135.40
2022-12-26T01:41:14.236Z,136.80
2022-12-26T01:42:14.203Z,138.80
2022-12-26T01:43:14.189Z,130.60
2022-12-26T01:44:14.167Z,134.90
2022-12-26T01:45:14.181Z,133.30
2022-12-26T01:46:14.243Z,133.80
2022-12-26T01:47:14.144Z,137.10
2022-12-26T01:48:14.137Z,137.80
2022-12-26T01:49:14.149Z,142.40
2022-12-26T01:50:14.124Z,144.90
2022-12-26T01:51:14.143Z,143.90
2022-12-26T01:52:14.094Z,137.40
2022-12-26T01:53:14.078Z,134.00
2022-12-26T01:54:39.491Z,136.80
2022-12-26T01:55:14.058Z,136.40
2022-12-26T01:56:14.051Z,130.20
2022-12-26T01:57:14.053Z,131.10
2022-12-26T01:58:14.028Z,133.20
2022-12-26T01:59:14.011Z,131.70
2022-12-26T02:00:14.019Z,135.60
2022-12-26T02:01:14.203Z,132.00
2022-12-26T02:02:14.191Z,136.50
2022-12-26T02:03:14.062Z,130.80
2022-12-26T02:04:13.979Z,134.80
2022-12-26T02:05:13.962Z,136.40
2022-12-26T02:06:13.951Z,137.40
2022-12-26T02:07:13.968Z,135.70
2022-12-26T02:08:20.408Z,128.00
2022-12-26T02:09:19.893Z,133.40
2022-12-26T02:10:20.394Z,135.50
2022-12-26T02:11:20.387Z,131.80
2022-12-26T02:12:34.362Z,127.20
2022-12-26T02:13:20.634Z,125.40
2022-12-26T02:14:20.389Z,130.00
2022-12-26T02:15:13.898Z,126.50
2022-12-26T02:16:13.887Z,123.60
2022-12-26T02:17:13.847Z,134.40
2022-12-26T02:18:13.824Z,133.00
2022-12-26T02:19:13.820Z,133.20
2022-12-26T02:20:13.871Z,134.40
2022-12-26T02:21:13.794Z,128.20
2022-12-26T02:22:13.823Z,135.40
2022-12-26T02:23:13.772Z,132.10
2022-12-26T02:24:13.771Z,129.20
2022-12-26T02:25:13.757Z,126.70
2022-12-26T02:26:13.759Z,132.20
2022-12-26T02:27:13.745Z,135.70
2022-12-26T02:28:13.725Z,132.40
2022-12-26T02:29:13.713Z,125.60
2022-12-26T02:30:13.702Z,126.40
2022-12-26T02:31:13.694Z,130.30
2022-12-26T02:32:13.763Z,131.50
2022-12-26T02:33:13.670Z,132.80
2022-12-26T02:34:13.705Z,130.30
2022-12-26T02:35:13.644Z,129.00
2022-12-26T02:36:13.642Z,134.60
2022-12-26T02:37:13.647Z,136.40
2022-12-26T02:38:13.624Z,137.20
2022-12-26T02:39:42.358Z,133.10
2022-12-26T02:40:13.600Z,132.60
2022-12-26T02:41:13.580Z,134.20
2022-12-26T02:42:13.596Z,132.70
2022-12-26T02:43:13.561Z,132.30
2022-12-26T02:44:13.551Z,151.30
2022-12-26T02:45:13.553Z,137.90
2022-12-26T02:46:13.692Z,142.10
2022-12-26T02:47:13.544Z,138.30
2022-12-26T02:48:13.511Z,138.80
2022-12-26T02:49:13.492Z,140.00
2022-12-26T02:50:13.503Z,143.90
2022-12-26T02:51:13.474Z,146.60
2022-12-26T02:52:13.499Z,146.90
2022-12-26T02:53:13.454Z,147.60
2022-12-26T02:54:13.454Z,148.10
2022-12-26T02:55:13.438Z,144.70
2022-12-26T02:56:13.442Z,141.20
2022-12-26T02:57:13.445Z,138.30
2022-12-26T02:58:13.444Z,138.90
2022-12-26T02:59:13.398Z,137.60
2022-12-26T03:00:13.390Z,138.40
2022-12-26T03:01:13.494Z,134.80
2022-12-26T03:02:13.602Z,134.60
2022-12-26T03:03:13.432Z,138.50
2022-12-26T03:04:13.348Z,138.70
2022-12-26T03:05:13.337Z,137.90
2022-12-26T03:06:13.335Z,140.40
2022-12-26T03:07:13.353Z,139.00
2022-12-26T03:08:13.309Z,138.00
2022-12-26T03:09:13.298Z,143.90
2022-12-26T03:10:13.300Z,140.30
2022-12-26T03:11:13.282Z,142.20
2022-12-26T03:12:13.265Z,140.20
2022-12-26T03:13:13.326Z,140.80
2022-12-26T03:14:13.244Z,143.80
2022-12-26T03:15:13.234Z,136.10
2022-12-26T03:16:13.347Z,141.80
2022-12-26T03:17:13.216Z,140.60
2022-12-26T03:18:13.226Z,138.00
2022-12-26T03:19:13.203Z,135.50
2022-12-26T03:20:13.189Z,140.30
2022-12-26T03:21:13.182Z,142.70
2022-12-26T03:22:13.188Z,136.90
2022-12-26T03:23:13.167Z,139.60
2022-12-26T03:24:13.171Z,143.20
2022-12-26T03:25:13.131Z,140.00
2022-12-26T03:26:13.130Z,142.10
2022-12-26T03:27:13.105Z,139.70
2022-12-26T03:28:14.149Z,137.50
2022-12-26T03:29:18.619Z,139.40
2022-12-26T03:30:13.099Z,137.90
2022-12-26T03:31:13.119Z,141.70
2022-12-26T03:32:13.083Z,141.60
2022-12-26T03:33:13.071Z,138.80
2022-12-26T03:34:13.056Z,137.00
2022-12-26T03:35:13.041Z,136.40
2022-12-26T03:36:13.025Z,135.70
2022-12-26T03:37:13.028Z,135.80
2022-12-26T03:38:13.044Z,134.60
2022-12-26T03:39:12.988Z,131.40
2022-12-26T03:40:12.987Z,134.70
2022-12-26T03:41:19.483Z,139.10
2022-12-26T03:42:19.457Z,142.50
2022-12-26T03:43:20.772Z,134.60
2022-12-26T03:44:12.958Z,130.90
2022-12-26T03:45:12.933Z,127.30
2022-12-26T03:46:12.988Z,126.10
2022-12-26T03:47:12.938Z,132.50
2022-12-26T03:48:12.934Z,126.10
2022-12-26T03:49:12.894Z,131.90
2022-12-26T03:50:12.894Z,131.10
2022-12-26T03:51:12.867Z,128.40
2022-12-26T03:52:12.861Z,133.70
2022-12-26T03:53:12.862Z,135.90
2022-12-26T03:54:12.850Z,136.90
2022-12-26T03:55:12.837Z,136.40
2022-12-26T03:56:12.835Z,131.40
2022-12-26T03:57:12.806Z,134.00
2022-12-26T03:58:12.826Z,139.90
2022-12-26T03:59:12.849Z,139.60
2022-12-26T04:00:12.798Z,139.40
2022-12-26T04:01:12.820Z,139.70
2022-12-26T04:02:12.926Z,133.90
2022-12-26T04:03:12.822Z,135.80
2022-12-26T04:04:12.738Z,132.00
2022-12-26T04:05:12.740Z,128.20
2022-12-26T04:06:12.736Z,130.70
2022-12-26T04:07:12.701Z,126.10
2022-12-26T04:08:18.209Z,124.10
2022-12-26T04:09:12.695Z,124.60
2022-12-26T04:10:12.672Z,119.20
2022-12-26T04:11:12.671Z,120.70
2022-12-26T04:12:12.674Z,124.00
2022-12-26T04:13:12.664Z,126.40
2022-12-26T04:14:12.634Z,125.70
2022-12-26T04:15:12.619Z,121.60
2022-12-26T04:16:12.668Z,122.20
2022-12-26T04:17:12.615Z,123.90
2022-12-26T04:18:12.625Z,125.60
2022-12-26T04:19:12.591Z,125.40
2022-12-26T04:20:12.570Z,125.30
2022-12-26T04:21:12.569Z,121.80
2022-12-26T04:22:12.552Z,128.80
2022-12-26T04:23:12.557Z,126.80
2022-12-26T04:24:12.536Z,123.10
2022-12-26T04:25:12.524Z,119.10
2022-12-26T04:26:12.507Z,120.80
2022-12-26T04:27:12.493Z,124.40
2022-12-26T04:28:12.508Z,122.20
2022-12-26T04:29:12.501Z,120.30
2022-12-26T04:30:12.478Z,122.40
2022-12-26T04:31:12.510Z,120.80
2022-12-26T04:32:12.454Z,130.50
2022-12-26T04:33:12.455Z,127.80
2022-12-26T04:34:12.429Z,126.80
2022-12-26T04:35:12.416Z,127.00
2022-12-26T04:36:12.422Z,128.40
2022-12-26T04:37:12.389Z,127.90
2022-12-26T04:38:12.409Z,121.00
2022-12-26T04:39:12.376Z,122.80
2022-12-26T04:40:12.367Z,115.40
2022-12-26T04:41:12.348Z,112.60
2022-12-26T04:42:12.353Z,112.90
2022-12-26T04:43:49.754Z,109.40
2022-12-26T04:44:12.336Z,106.40
2022-12-26T04:45:12.312Z,102.80
2022-12-26T04:46:12.335Z,98.70
2022-12-26T04:47:12.289Z,97.00
2022-12-26T04:48:12.313Z,100.70
2022-12-26T04:49:12.272Z,97.40
2022-12-26T04:50:12.310Z,93.10
2022-12-26T04:51:12.258Z,89.40
2022-12-26T04:52:12.252Z,94.00
2022-12-26T04:53:12.259Z,95.60
2022-12-26T04:54:12.238Z,101.90
2022-12-26T04:55:12.217Z,96.30
2022-12-26T04:56:12.206Z,95.00
2022-12-26T04:57:12.203Z,93.50
2022-12-26T04:58:12.207Z,92.80
2022-12-26T04:59:12.168Z,91.90
2022-12-26T05:00:12.166Z,92.30
2022-12-26T05:01:12.326Z,84.80
2022-12-26T05:02:12.249Z,95.20
2022-12-26T05:03:18.279Z,98.30
2022-12-26T05:04:12.143Z,100.10
2022-12-26T05:05:12.104Z,111.50
2022-12-26T05:06:12.109Z,109.30
2022-12-26T05:07:12.079Z,109.20
2022-12-26T05:08:12.074Z,104.00
2022-12-26T05:09:12.096Z,105.40
2022-12-26T05:10:12.068Z,101.00
2022-12-26T05:11:12.042Z,102.50
2022-12-26T05:12:12.047Z,102.10
2022-12-26T05:13:12.037Z,96.40
2022-12-26T05:14:12.060Z,108.80
2022-12-26T05:15:12.005Z,108.20
2022-12-26T05:16:12.048Z,102.90
2022-12-26T05:17:11.979Z,101.70
2022-12-26T05:18:11.982Z,94.10
2022-12-26T05:19:11.991Z,100.90
2022-12-26T05:20:11.941Z,95.70
2022-12-26T05:21:11.936Z,96.80
2022-12-26T05:22:11.933Z,100.60
2022-12-26T05:23:11.923Z,96.80
2022-12-26T05:24:11.937Z,92.40
2022-12-26T05:25:11.916Z,88.90
2022-12-26T05:26:11.888Z,86.00
2022-12-26T05:27:11.872Z,93.80
2022-12-26T05:28:11.872Z,96.10
2022-12-26T05:29:11.885Z,83.90
2022-12-26T05:30:11.849Z,80.10
2022-12-26T05:31:11.908Z,74.80
2022-12-26T05:32:11.825Z,87.20
2022-12-26T05:33:11.806Z,92.70
2022-12-26T05:34:11.839Z,86.50
2022-12-26T05:35:11.783Z,82.70
2022-12-26T05:36:11.780Z,86.10
2022-12-26T05:37:11.781Z,83.50
2022-12-26T05:38:11.776Z,93.10
2022-12-26T05:39:11.782Z,87.80
2022-12-26T05:40:11.740Z,87.80
2022-12-26T05:41:11.729Z,87.10
2022-12-26T05:42:11.718Z,87.00
2022-12-26T05:43:11.726Z,90.10
2022-12-26T05:44:11.735Z,88.60
2022-12-26T05:45:11.692Z,84.40
2022-12-26T05:46:11.748Z,98.50
2022-12-26T05:47:11.669Z,98.80
2022-12-26T05:48:11.685Z,88.60
2022-12-26T05:49:11.667Z,80.80
2022-12-26T05:50:11.661Z,77.90
2022-12-26T05:51:11.650Z,80.50
2022-12-26T05:52:11.619Z,79.00
2022-12-26T05:53:11.608Z,77.80
2022-12-26T05:54:11.629Z,80.30
2022-12-26T05:55:11.600Z,80.80
2022-12-26T05:56:11.602Z,69.80
2022-12-26T05:57:11.572Z,68.90
2022-12-26T05:58:11.558Z,67.70
2022-12-26T05:59:11.580Z,75.30
2022-12-26T06:00:11.534Z,74.40
2022-12-26T06:01:11.621Z,82.60
2022-12-26T06:02:11.598Z,75.90
2022-12-26T06:03:18.095Z,72.40
2022-12-26T06:04:19.301Z,68.10
2022-12-26T06:05:17.968Z,65.60
2022-12-26T06:06:11.478Z,72.00
2022-12-26T06:07:11.461Z,69.60
2022-12-26T06:08:11.455Z,68.60
2022-12-26T06:09:11.480Z,67.00
2022-12-26T06:10:11.432Z,69.80
2022-12-26T06:11:11.424Z,68.80
2022-12-26T06:12:11.404Z,79.70
2022-12-26T06:13:11.407Z,72.10
2022-12-26T06:14:11.406Z,75.20
2022-12-26T06:15:11.384Z,70.60
2022-12-26T06:16:11.402Z,71.40
2022-12-26T06:17:11.360Z,68.40
2022-12-26T06:18:11.342Z,73.10
2022-12-26T06:19:11.393Z,70.60
2022-12-26T06:20:11.340Z,66.00
2022-12-26T06:21:11.353Z,63.80
2022-12-26T06:22:11.316Z,59.40
2022-12-26T06:23:11.301Z,72.10
2022-12-26T06:24:11.307Z,60.80
2022-12-26T06:25:11.286Z,60.30
2022-12-26T06:26:11.366Z,63.60
2022-12-26T06:27:11.259Z,65.40
2022-12-26T06:28:11.247Z,66.20
2022-12-26T06:29:11.272Z,64.80
2022-12-26T06:30:11.237Z,72.40
2022-12-26T06:31:11.287Z,65.20
2022-12-26T06:32:11.221Z,64.60
2022-12-26T06:33:11.205Z,65.30
2022-12-26T06:34:11.189Z,66.70
2022-12-26T06:35:11.224Z,62.70
2022-12-26T06:36:11.194Z,65.60
2022-12-26T06:37:11.167Z,63.80
2022-12-26T06:38:11.168Z,64.00
2022-12-26T06:39:11.173Z,70.90
2022-12-26T06:40:11.185Z,69.80
2022-12-26T06:41:11.149Z,63.60
2022-12-26T06:42:11.124Z,69.20
2022-12-26T06:43:11.128Z,66.20
2022-12-26T06:44:17.726Z,65.90
2022-12-26T06:45:11.114Z,66.30
2022-12-26T06:46:11.091Z,64.40
2022-12-26T06:47:11.137Z,69.70
2022-12-26T06:48:11.092Z,70.40
2022-12-26T06:49:11.037Z,68.70
2022-12-26T06:50:18.848Z,68.70
2022-12-26T06:51:11.018Z,65.10
2022-12-26T06:52:10.992Z,67.40
2022-12-26T06:53:17.494Z,68.70
2022-12-26T06:54:16.987Z,71.50
2022-12-26T06:55:18.900Z,71.80
2022-12-26T06:56:10.982Z,70.30
2022-12-26T06:57:10.966Z,76.90
2022-12-26T06:58:10.948Z,70.00
2022-12-26T06:59:10.939Z,67.30
2022-12-26T07:00:10.934Z,70.10
2022-12-26T07:01:11.135Z,67.60
2022-12-26T07:02:11.005Z,73.40
2022-12-26T07:03:10.943Z,67.80
2022-12-26T07:04:10.883Z,64.70
2022-12-26T07:05:10.894Z,65.60
2022-12-26T07:06:10.859Z,65.00
2022-12-26T07:07:10.849Z,70.10
2022-12-26T07:08:10.793Z,65.10
2022-12-26T07:09:10.797Z,61.40
2022-12-26T07:10:10.786Z,63.80
2022-12-26T07:11:10.774Z,67.10
2022-12-26T07:12:10.756Z,71.80
2022-12-26T07:13:10.746Z,70.60
2022-12-26T07:14:10.732Z,70.00
2022-12-26T07:15:10.752Z,73.20
2022-12-26T07:16:10.758Z,68.10
2022-12-26T07:17:10.699Z,75.80
2022-12-26T07:18:17.170Z,73.30
2022-12-26T07:19:17.188Z,69.30
2022-12-26T07:20:10.671Z,72.00
2022-12-26T07:21:10.683Z,71.30
2022-12-26T07:22:10.642Z,74.50
2022-12-26T07:23:10.647Z,71.30
2022-12-26T07:24:10.624Z,80.30
2022-12-26T07:25:10.620Z,72.90
2022-12-26T07:26:10.636Z,72.80
2022-12-26T07:27:10.603Z,74.00
2022-12-26T07:28:10.578Z,74.60
2022-12-26T07:29:10.598Z,73.40
2022-12-26T07:30:10.567Z,78.00
2022-12-26T07:31:10.646Z,81.40
2022-12-26T07:32:10.607Z,81.10
2022-12-26T07:33:10.537Z,82.50
2022-12-26T07:34:10.531Z,76.20
2022-12-26T07:35:10.515Z,70.70
2022-12-26T07:36:10.538Z,82.30
2022-12-26T07:37:10.492Z,80.00
2022-12-26T07:38:10.505Z,84.20
2022-12-26T07:39:10.475Z,82.50
2022-12-26T07:40:10.475Z,79.50
2022-12-26T07:41:10.473Z,75.60
2022-12-26T07:42:10.443Z,78.20
2022-12-26T07:43:10.449Z,79.60
2022-12-26T07:44:10.425Z,76.40
2022-12-26T07:45:10.424Z,81.10
2022-12-26T07:46:10.553Z,81.20
2022-12-26T07:47:10.411Z,78.10
2022-12-26T07:48:10.384Z,80.40
2022-12-26T07:49:10.375Z,77.60
2022-12-26T07:50:10.381Z,77.70
2022-12-26T07:51:10.389Z,79.00
2022-12-26T07:52:10.353Z,73.00
2022-12-26T07:53:10.344Z,80.30
2022-12-26T07:54:11.530Z,75.10
2022-12-26T07:55:10.311Z,83.80
2022-12-26T07:56:10.319Z,86.70
2022-12-26T07:57:46.394Z,87.60
2022-12-26T07:58:10.292Z,87.10
2022-12-26T07:59:10.273Z,89.20
2022-12-26T08:00:10.262Z,88.50
2022-12-26T08:01:10.435Z,90.60
2022-12-26T08:02:10.454Z,83.00
2022-12-26T08:03:10.376Z,80.30
2022-12-26T08:04:10.263Z,83.70
2022-12-26T08:05:10.216Z,84.90
2022-12-26T08:06:10.226Z,83.70
2022-12-26T08:07:10.194Z,82.30
2022-12-26T08:08:10.185Z,81.20
2022-12-26T08:09:10.175Z,85.50
2022-12-26T08:10:10.175Z,84.20
2022-12-26T08:11:10.203Z,83.00
2022-12-26T08:12:10.146Z,73.70
2022-12-26T08:13:10.140Z,67.60
2022-12-26T08:14:10.125Z,71.40
2022-12-26T08:15:10.125Z,70.90
2022-12-26T08:16:10.204Z,74.50
2022-12-26T08:17:10.158Z,72.50
2022-12-26T08:18:10.105Z,67.40
2022-12-26T08:19:10.082Z,72.70
2022-12-26T08:20:10.079Z,67.50
2022-12-26T08:21:10.093Z,71.60
2022-12-26T08:22:10.043Z,62.30
2022-12-26T08:23:10.055Z,63.00
2022-12-26T08:24:10.017Z,59.10
2022-12-26T08:25:10.023Z,59.90
2022-12-26T08:26:16.007Z,64.60
2022-12-26T08:27:09.993Z,57.70
2022-12-26T08:28:16.459Z,56.40
2022-12-26T08:29:09.972Z,47.20
2022-12-26T08:30:09.952Z,50.50
2022-12-26T08:31:09.946Z,50.80
2022-12-26T08:32:09.963Z,49.60
2022-12-26T08:33:09.936Z,52.90
2022-12-26T08:34:09.932Z,49.80
2022-12-26T08:35:09.927Z,47.30
2022-12-26T08:36:09.894Z,49.00
2022-12-26T08:37:09.955Z,49.20
2022-12-26T08:38:09.874Z,53.50
2022-12-26T08:39:09.878Z,50.40
2022-12-26T08:40:09.868Z,55.60
2022-12-26T08:41:09.881Z,54.70
2022-12-26T08:42:09.864Z,53.40
2022-12-26T08:43:32.117Z,55.90
2022-12-26T08:44:26.711Z,52.00
2022-12-26T08:45:09.823Z,55.90
2022-12-26T08:46:09.844Z,54.60
2022-12-26T08:47:09.831Z,50.90
2022-12-26T08:48:09.775Z,57.20
2022-12-26T08:49:09.769Z,53.50
2022-12-26T08:50:09.749Z,58.20
2022-12-26T08:51:09.764Z,53.80
2022-12-26T08:52:09.758Z,55.30
2022-12-26T08:53:09.751Z,56.80
2022-12-26T08:54:09.722Z,50.60
2022-12-26T08:55:09.719Z,55.70
2022-12-26T08:56:09.707Z,54.50
2022-12-26T08:57:09.751Z,49.00
2022-12-26T08:58:09.738Z,55.70
2022-12-26T08:59:09.666Z,57.60
2022-12-26T09:00:09.664Z,52.00
2022-12-26T09:01:09.749Z,53.70
2022-12-26T09:02:09.818Z,53.30
2022-12-26T09:03:09.667Z,50.50
2022-12-26T09:04:09.627Z,52.10
2022-12-26T09:05:09.605Z,53.20
2022-12-26T09:06:09.624Z,52.10
2022-12-26T09:07:09.608Z,50.00
2022-12-26T09:08:09.588Z,46.00
2022-12-26T09:09:09.576Z,44.40
2022-12-26T09:10:09.563Z,45.60
2022-12-26T09:11:09.582Z,42.00
2022-12-26T09:12:09.552Z,44.80
2022-12-26T09:13:09.530Z,40.60
2022-12-26T09:14:09.513Z,36.90
2022-12-26T09:15:09.533Z,37.90
2022-12-26T09:16:09.495Z,41.20
2022-12-26T09:17:09.524Z,39.40
2022-12-26T09:18:09.476Z,37.70
2022-12-26T09:19:09.477Z,40.60
2022-12-26T09:20:09.453Z,41.10
2022-12-26T09:21:09.444Z,41.10
2022-12-26T09:22:09.475Z,45.80
2022-12-26T09:23:09.434Z,43.10
2022-12-26T09:24:09.410Z,43.70
2022-12-26T09:25:09.414Z,45.00
2022-12-26T09:26:09.390Z,43.00
2022-12-26T09:27:09.423Z,47.70
2022-12-26T09:28:09.403Z,42.30
2022-12-26T09:29:09.364Z,42.50
2022-12-26T09:30:09.351Z,41.00
2022-12-26T09:31:09.391Z,37.40
2022-12-26T09:32:09.371Z,41.60
2022-12-26T09:33:09.328Z,39.70
2022-12-26T09:34:09.352Z,43.30
2022-12-26T09:35:09.307Z,37.50
2022-12-26T09:36:14.273Z,42.50
2022-12-26T09:37:09.369Z,39.30
2022-12-26T09:38:09.289Z,41.00
2022-12-26T09:39:09.297Z,40.70
2022-12-26T09:40:09.267Z,35.10
2022-12-26T09:41:09.248Z,34.80
2022-12-26T09:42:09.250Z,33.70
2022-12-26T09:43:09.225Z,34.10
2022-12-26T09:44:09.212Z,28.60
2022-12-26T09:45:09.198Z,30.70
2022-12-26T09:46:09.246Z,33.60
2022-12-26T09:47:09.208Z,32.20
2022-12-26T09:48:09.200Z,30.50
2022-12-26T09:49:09.166Z,28.90
2022-12-26T09:50:09.169Z,31.10
2022-12-26T09:51:09.150Z,29.90
2022-12-26T09:52:09.159Z,28.40
2022-12-26T09:53:09.120Z,27.30
2022-12-26T09:54:09.121Z,26.90
2022-12-26T09:55:09.099Z,28.20
2022-12-26T09:56:18.327Z,30.90
2022-12-26T09:57:14.799Z,30.00
2022-12-26T09:58:09.086Z,32.60
2022-12-26T09:59:09.066Z,25.00
2022-12-26T10:00:09.051Z,23.40
2022-12-26T10:01:09.174Z,24.00
2022-12-26T10:02:09.149Z,23.90
2022-12-26T10:03:09.024Z,20.20
2022-12-26T10:04:09.054Z,23.70
2022-12-26T10:05:09.031Z,23.10
2022-12-26T10:06:09.010Z,19.60
2022-12-26T10:07:08.989Z,15.60
2022-12-26T10:08:08.997Z,17.80
2022-12-26T10:09:08.962Z,17.00
2022-12-26T10:10:08.976Z,18.50
2022-12-26T10:11:08.941Z,21.50
2022-12-26T10:12:08.968Z,15.40
2022-12-26T10:13:08.943Z,13.20
2022-12-26T10:14:08.907Z,15.20
2022-12-26T10:15:08.888Z,18.80
2022-12-26T10:16:08.931Z,20.90
2022-12-26T10:17:08.879Z,18.70
2022-12-26T10:18:08.893Z,17.50
2022-12-26T10:19:08.846Z,15.50
2022-12-26T10:20:08.848Z,16.10
2022-12-26T10:21:08.823Z,18.60
2022-12-26T10:22:08.847Z,21.10
2022-12-26T10:23:08.823Z,21.80
2022-12-26T10:24:08.806Z,19.30
2022-12-26T10:25:08.789Z,21.30
2022-12-26T10:26:08.781Z,20.80
2022-12-26T10:27:08.821Z,19.10
2022-12-26T10:28:08.785Z,18.60
2022-12-26T10:29:08.744Z,19.70
2022-12-26T10:30:08.742Z,16.60
2022-12-26T10:31:08.757Z,16.20
2022-12-26T10:32:08.724Z,15.70
2022-12-26T10:33:08.729Z,16.50
2022-12-26T10:34:08.716Z,16.10
2022-12-26T10:35:08.687Z,14.30
2022-12-26T10:36:08.672Z,17.30
2022-12-26T10:37:08.661Z,16.50
2022-12-26T10:38:08.701Z,16.10
2022-12-26T10:39:08.638Z,13.60
2022-12-26T10:40:08.645Z,16.60
2022-12-26T10:41:08.620Z,13.20
2022-12-26T10:42:08.635Z,13.20
2022-12-26T10:43:08.633Z,15.50
2022-12-26T10:44:08.596Z,14.00
2022-12-26T10:45:08.577Z,13.90
2022-12-26T10:46:08.652Z,13.70
2022-12-26T10:47:08.579Z,12.60
2022-12-26T10:48:08.587Z,12.30
2022-12-26T10:49:08.552Z,12.30
2022-12-26T10:50:15.015Z,11.30
2022-12-26T10:51:14.542Z,12.70
2022-12-26T10:52:08.514Z,13.50
2022-12-26T10:53:08.523Z,12.60
2022-12-26T10:54:08.502Z,14.00
2022-12-26T10:55:27.976Z,13.50
2022-12-26T10:56:11.963Z,15.20
2022-12-26T10:57:08.535Z,12.70
2022-12-26T10:58:08.482Z,12.40
2022-12-26T10:59:08.448Z,12.60
2022-12-26T11:00:08.477Z,12.10
2022-12-26T11:01:08.443Z,9.40
2022-12-26T11:02:08.493Z,8.30
2022-12-26T11:03:08.537Z,9.80
2022-12-26T11:04:08.388Z,9.50
2022-12-26T11:05:22.147Z,10.20
2022-12-26T11:06:09.381Z,10.60
2022-12-26T11:07:08.420Z,9.90
2022-12-26T11:08:08.371Z,9.90
2022-12-26T11:09:08.329Z,9.10
2022-12-26T11:10:08.324Z,10.40
2022-12-26T11:11:08.308Z,9.10
2022-12-26T11:12:08.304Z,8.90
2022-12-26T11:13:08.315Z,9.50
2022-12-26T11:14:08.285Z,8.10
2022-12-26T11:15:08.268Z,8.20
2022-12-26T11:16:08.327Z,9.50
2022-12-26T11:17:08.243Z,6.70
2022-12-26T11:18:08.276Z,5.50
2022-12-26T11:19:08.220Z,6.30
2022-12-26T11:20:08.218Z,6.40
2022-12-26T11:21:12.632Z,6.60
2022-12-26T11:22:08.207Z,6.90
2022-12-26T11:23:08.177Z,5.80
2022-12-26T11:24:08.252Z,5.60
2022-12-26T11:25:08.165Z,6.90
2022-12-26T11:26:08.162Z,7.30
2022-12-26T11:27:12.689Z,8.30
2022-12-26T11:28:08.144Z,10.30
2022-12-26T11:29:08.163Z,11.60
2022-12-26T11:30:08.115Z,13.00
2022-12-26T11:31:08.152Z,15.30
2022-12-26T11:32:08.099Z,14.80
2022-12-26T11:33:13.867Z,19.00
2022-12-26T11:34:08.115Z,19.60
2022-12-26T11:35:08.068Z,19.90
2022-12-26T11:36:08.055Z,27.30
2022-12-26T11:37:08.031Z,27.30
2022-12-26T11:38:08.035Z,25.60
2022-12-26T11:39:08.049Z,31.40
2022-12-26T11:40:14.501Z,27.50
2022-12-26T11:41:13.987Z,30.70
2022-12-26T11:42:14.483Z,31.40
2022-12-26T11:43:13.957Z,29.70
2022-12-26T11:44:15.575Z,35.30
2022-12-26T11:45:13.938Z,28.90
2022-12-26T11:46:14.480Z,30.30
2022-12-26T11:47:07.930Z,34.30
2022-12-26T11:48:07.927Z,34.80
2022-12-26T11:49:07.936Z,43.30
2022-12-26T11:50:07.914Z,33.50
2022-12-26T11:51:07.892Z,42.60
2022-12-26T11:52:07.889Z,61.10
2022-12-26T11:53:07.892Z,49.20
2022-12-26T11:54:07.895Z,48.20
2022-12-26T11:55:07.853Z,48.00
2022-12-26T11:56:07.841Z,50.90
2022-12-26T11:57:07.825Z,61.20
2022-12-26T11:58:07.824Z,69.70
2022-12-26T11:59:07.832Z,72.50
2022-12-26T12:00:07.822Z,72.20
2022-12-26T12:01:07.822Z,69.20
2022-12-26T12:02:07.824Z,81.60
2022-12-26T12:03:07.780Z,98.20
2022-12-26T12:04:07.789Z,102.20
2022-12-26T12:05:07.752Z,88.10
2022-12-26T12:06:07.765Z,80.80
2022-12-26T12:07:07.731Z,77.90
2022-12-26T12:08:07.721Z,77.80
2022-12-26T12:09:07.732Z,87.60
2022-12-26T12:10:07.702Z,84.10
2022-12-26T12:11:07.716Z,78.60
2022-12-26T12:12:07.736Z,71.40
2022-12-26T12:13:07.922Z,71.30
2022-12-26T12:14:07.697Z,72.50
2022-12-26T12:15:07.655Z,71.60
2022-12-26T12:16:07.709Z,72.10
2022-12-26T12:17:07.630Z,86.60
2022-12-26T12:18:07.633Z,103.20
2022-12-26T12:19:07.633Z,97.30
2022-12-26T12:20:07.608Z,84.00
2022-12-26T12:21:07.588Z,87.80
2022-12-26T12:22:07.595Z,90.90
2022-12-26T12:23:07.583Z,105.10
2022-12-26T12:24:07.654Z,104.20
2022-12-26T12:25:07.559Z,101.50
2022-12-26T12:26:07.572Z,101.50
2022-12-26T12:27:07.527Z,114.80
2022-12-26T12:28:07.519Z,101.90
2022-12-26T12:29:07.509Z,94.80
2022-12-26T12:30:07.531Z,93.00
2022-12-26T12:31:07.483Z,99.00
2022-12-26T12:32:07.555Z,94.60
2022-12-26T12:33:07.472Z,95.00
2022-12-26T12:34:07.492Z,98.20
2022-12-26T12:35:07.466Z,118.40
2022-12-26T12:36:07.456Z,108.40
2022-12-26T12:37:07.422Z,95.80
2022-12-26T12:38:07.425Z,92.80
2022-12-26T12:39:07.407Z,94.50
2022-12-26T12:40:07.428Z,104.10
2022-12-26T12:41:07.399Z,84.90
2022-12-26T12:42:07.402Z,29.20
2022-12-26T12:43:07.361Z,11.40